Landen, Belgium
Current Conditions -  °F | °C
As of 10:25 PM on Wednesday 26 Nov 2014 (Local Time) from EBBE Reporting Station
Overcast Overcast  
Wind Chill: 46°   Ceiling: 4400
Heat Index: 48°   Visibility: 4mi
Dew Point: 46°   Wind: 6mph
Humidity: 93%   Direction: 160°SSE
Pressure: 29.83"   Gusts: NA
Location:  50.75°N, 5.08°E
Report Text: EBBE 262125Z AUTO 16005KT 6000 SCT018/// BKN044/// OVC090/// 09/08 Q1010 WHT
Loading
Personal Weather Stations






























Interactive Weather Map New forecast layout! Learn more

10-Day Weather Forecast

Advertisements
Track Severe Weather on mobile